Time,TemperatureF,DewpointF,PressureIn,WindDirection,WindDirectionDegrees,WindSpeedMPH,WindSpeedGustMPH,Humidity,HourlyPrecipIn,Conditions,Clouds,dailyrainin,SoftwareType,DateUTC
2013-03-10 00:08:00,52.5,31.8,29.32,NW,315,1.1,3.1,45,0.00,,OVC240,0.00,VWS V14.01,2013-03-10 06:08:00,
2013-03-10 00:18:00,52.9,31.6,29.32,West,270,1.6,3.1,44,0.00,,OVC240,0.00,VWS V14.01,2013-03-10 06:18:00,
2013-03-10 00:28:00,53.6,31.7,29.32,WNW,292,0.0,3.1,43,0.00,,OVC240,0.00,VWS V14.01,2013-03-10 06:28:00,
2013-03-10 00:38:00,53.1,31.7,29.32,NW,315,2.0,2.0,44,0.00,,OVC240,0.00,VWS V14.01,2013-03-10 06:38:00,
2013-03-10 00:48:00,52.0,31.3,29.29,NW,315,2.0,2.0,45,0.00,,OVC240,0.00,VWS V14.01,2013-03-10 06:48:00,
2013-03-10 00:58:00,51.6,31.0,29.32,NW,315,2.7,2.7,45,0.00,,OVC240,0.00,VWS V14.01,2013-03-10 06:58:00,
2013-03-10 01:08:00,51.4,31.4,29.32,WNW,292,2.7,2.7,46,0.00,,OVC240,0.00,VWS V14.01,2013-03-10 07:08:00,
2013-03-10 01:18:00,52.0,31.3,29.32,NW,315,0.0,2.7,45,0.00,,OVC240,0.00,VWS V14.01,2013-03-10 07:18:00,
2013-03-10 01:28:00,52.0,31.9,29.32,NW,315,2.9,2.9,46,0.00,,OVC240,0.00,VWS V14.01,2013-03-10 07:28:00,
2013-03-10 01:38:00,52.9,32.1,29.32,WNW,292,2.7,2.9,45,0.00,,OVC240,0.00,VWS V14.01,2013-03-10 07:38:00,
2013-03-10 01:48:00,52.7,32.0,29.32,NW,315,2.2,2.9,45,0.00,,OVC240,0.00,VWS V14.01,2013-03-10 07:48:00,
2013-03-10 01:58:00,53.4,32.1,29.32,West,270,2.7,2.9,44,0.00,,OVC240,0.00,VWS V14.01,2013-03-10 07:58:00,
2013-03-10 03:08:00,54.0,32.0,29.32,West,270,1.1,2.9,43,0.00,,OVC240,0.00,VWS V14.01,2013-03-10 08:08:00,
2013-03-10 03:18:00,54.1,32.2,29.32,West,270,0.0,2.7,43,0.00,,OVC240,0.00,VWS V14.01,2013-03-10 08:18:00,
2013-03-10 03:28:00,54.3,32.3,29.32,WNW,292,2.0,2.7,43,0.00,,OVC240,0.00,VWS V14.01,2013-03-10 08:28:00,
2013-03-10 03:38:00,54.3,32.3,29.32,West,270,1.6,2.7,43,0.00,,OVC240,0.00,VWS V14.01,2013-03-10 08:38:00,
2013-03-10 03:48:00,54.9,32.2,29.32,SW,225,0.0,2.0,42,0.00,,OVC240,0.00,VWS V14.01,2013-03-10 08:48:00,
2013-03-10 03:58:00,55.8,32.4,29.32,SE,135,2.0,2.0,41,0.00,,OVC240,0.00,VWS V14.01,2013-03-10 08:58:00,
2013-03-10 04:08:00,55.9,32.0,29.32,East,90,3.6,3.6,40,0.00,,OVC240,0.00,VWS V14.01,2013-03-10 09:08:00,
2013-03-10 04:18:00,55.6,32.3,29.32,West,270,2.7,3.6,41,0.00,,OVC240,0.00,VWS V14.01,2013-03-10 09:18:00,
2013-03-10 04:28:00,55.6,31.7,29.32,SSW,202,2.2,3.6,40,0.00,,OVC240,0.00,VWS V14.01,2013-03-10 09:28:00,
2013-03-10 04:38:00,56.1,32.2,29.32,West,270,4.0,4.0,40,0.00,,OVC240,0.00,VWS V14.01,2013-03-10 09:38:00,
2013-03-10 04:48:00,55.2,32.0,29.32,West,270,2.9,4.0,41,0.00,,OVC240,0.00,VWS V14.01,2013-03-10 09:48:00,
2013-03-10 04:58:00,53.8,30.6,29.32,North,0,1.1,4.0,41,0.00,,OVC240,0.00,VWS V14.01,2013-03-10 09:58:00,
2013-03-10 05:08:00,53.6,31.1,29.32,West,270,1.3,4.0,42,0.00,,OVC240,0.00,VWS V14.01,2013-03-10 10:08:00,
2013-03-10 05:18:00,53.4,30.9,29.32,WNW,292,2.5,4.0,42,0.00,,OVC240,0.00,VWS V14.01,2013-03-10 10:18:00,
2013-03-10 05:30:00,53.4,31.5,29.32,West,270,1.1,2.0,43,0.00,,OVC240,0.00,VWS V14.01,2013-03-10 10:30:00,
2013-03-10 05:40:00,53.8,31.2,29.32,NW,315,3.8,3.8,42,0.00,,OVC240,0.00,VWS V14.01,2013-03-10 10:40:00,
2013-03-10 05:50:00,53.8,31.2,29.32,NW,315,2.5,2.5,42,0.00,,OVC240,0.00,VWS V14.01,2013-03-10 10:50:00,
2013-03-10 06:00:00,53.6,30.5,29.35,SE,135,3.4,3.4,41,0.00,,OVC240,0.00,VWS V14.01,2013-03-10 11:00:00,
2013-03-10 06:10:00,52.3,30.5,29.35,West,270,0.0,0.0,43,0.00,,OVC240,0.00,VWS V14.01,2013-03-10 11:10:00,
2013-03-10 06:20:00,51.1,30.0,29.35,SSW,202,1.1,1.3,44,0.00,,OVC240,0.00,VWS V14.01,2013-03-10 11:20:00,
2013-03-10 06:30:00,51.1,30.0,29.35,West,270,0.0,0.0,44,0.00,,OVC240,0.00,VWS V14.01,2013-03-10 11:30:00,
2013-03-10 06:40:00,51.8,30.6,29.35,SSW,202,2.0,2.0,44,0.00,,OVC240,0.00,VWS V14.01,2013-03-10 11:40:00,
2013-03-10 06:50:00,53.8,30.6,29.35,SSW,202,2.7,2.7,41,0.00,,OVC240,0.00,VWS V14.01,2013-03-10 11:50:00,
2013-03-10 07:00:00,55.8,31.2,29.35,South,180,4.9,4.9,39,0.00,,OVC240,0.00,VWS V14.01,2013-03-10 12:00:00,
2013-03-10 07:10:00,57.2,32.5,29.35,SSE,158,2.9,7.2,39,0.00,,OVC240,0.00,VWS V14.01,2013-03-10 12:10:00,
2013-03-10 07:20:00,58.6,33.1,29.35,SE,135,5.4,5.4,38,0.00,,OVC240,0.00,VWS V14.01,2013-03-10 12:20:00,
2013-03-10 07:30:00,59.9,33.6,29.38,South,180,3.8,4.9,37,0.00,,OVC240,0.00,VWS V14.01,2013-03-10 12:30:00,
2013-03-10 07:40:00,60.8,33.7,29.38,South,180,4.0,4.0,36,0.00,,OVC240,0.00,VWS V14.01,2013-03-10 12:40:00,
2013-03-10 07:50:00,61.5,33.6,29.41,West,270,2.7,2.7,35,0.00,,OVC240,0.00,VWS V14.01,2013-03-10 12:50:00,
2013-03-10 08:00:00,62.6,34.6,29.38,SSE,158,9.6,9.6,35,0.00,,OVC240,0.00,VWS V14.01,2013-03-10 13:00:00,
2013-03-10 08:10:00,61.9,34.0,29.38,SSE,158,3.1,3.8,35,0.00,,OVC240,0.00,VWS V14.01,2013-03-10 13:10:00,
2013-03-10 08:20:00,61.7,34.5,29.38,SW,225,3.1,3.1,36,0.00,,OVC240,0.00,VWS V14.01,2013-03-10 13:20:00,
2013-03-10 08:30:00,62.2,35.0,29.35,SW,225,4.7,4.7,36,0.00,,OVC240,0.00,VWS V14.01,2013-03-10 13:30:00,
2013-03-10 08:40:00,62.1,34.1,29.35,WSW,248,5.4,5.4,35,0.00,,OVC240,0.00,VWS V14.01,2013-03-10 13:40:00,
2013-03-10 08:50:00,63.9,35.7,29.35,SSE,158,3.8,5.8,35,0.00,,OVC240,0.00,VWS V14.01,2013-03-10 13:50:00,
2013-03-10 09:00:00,65.8,36.7,29.35,South,180,9.8,9.8,34,0.00,,OVC240,0.00,VWS V14.01,2013-03-10 14:00:00,
2013-03-10 09:10:00,63.7,34.8,29.35,South,180,10.5,10.5,34,0.00,,OVC240,0.00,VWS V14.01,2013-03-10 14:10:00,
2013-03-10 09:20:00,63.9,35.7,29.35,South,180,5.8,6.5,35,0.00,,OVC240,0.00,VWS V14.01,2013-03-10 14:20:00,
2013-03-10 09:30:00,67.5,38.1,29.35,ESE,112,7.6,7.6,34,0.00,,OVC240,0.00,VWS V14.01,2013-03-10 14:30:00,
2013-03-10 09:40:00,67.8,37.7,29.35,SW,225,3.8,3.8,33,0.00,,OVC240,0.00,VWS V14.01,2013-03-10 14:40:00,
2013-03-10 09:50:00,69.4,39.1,29.32,SSW,202,5.4,5.4,33,0.00,,OVC240,0.00,VWS V14.01,2013-03-10 14:50:00,
2013-03-10 10:00:00,70.9,39.6,29.32,South,180,5.8,10.5,32,0.00,,OVC240,0.00,VWS V14.01,2013-03-10 15:00:00,
2013-03-10 10:10:00,70.3,39.1,29.32,SE,135,3.8,3.8,32,0.00,,OVC240,0.00,VWS V14.01,2013-03-10 15:10:00,
2013-03-10 10:20:00,71.6,39.4,29.32,East,90,4.7,9.8,31,0.00,,OVC240,0.00,VWS V14.01,2013-03-10 15:20:00,
2013-03-10 10:30:00,69.1,38.0,29.32,SE,135,10.7,10.7,32,0.00,,OVC240,0.00,VWS V14.01,2013-03-10 15:30:00,
2013-03-10 10:40:00,71.6,40.2,29.32,NE,45,5.8,5.8,32,0.00,,OVC240,0.00,VWS V14.01,2013-03-10 15:40:00,
2013-03-10 10:50:00,73.0,39.8,29.32,SSW,202,4.0,4.3,30,0.00,,OVC240,0.00,VWS V14.01,2013-03-10 15:50:00,
2013-03-10 11:00:00,72.0,38.0,29.32,SE,135,12.5,12.5,29,0.00,,OVC240,0.00,VWS V14.01,2013-03-10 16:00:00,
2013-03-10 11:10:00,72.3,39.2,29.32,SE,135,6.5,6.5,30,0.00,,OVC240,0.00,VWS V14.01,2013-03-10 16:10:00,
2013-03-10 11:20:00,72.3,39.2,29.32,SE,135,11.0,11.0,30,0.00,,OVC240,0.00,VWS V14.01,2013-03-10 16:20:00,
2013-03-10 11:30:00,72.5,39.3,29.32,SE,135,4.9,4.9,30,0.00,,OVC240,0.00,VWS V14.01,2013-03-10 16:30:00,
2013-03-10 11:40:00,71.4,40.0,29.32,SE,135,6.0,6.0,32,0.00,,OVC240,0.00,VWS V14.01,2013-03-10 16:40:00,
2013-03-10 11:50:00,70.5,36.8,29.32,SE,135,11.0,11.0,29,0.00,,OVC240,0.00,VWS V14.01,2013-03-10 16:50:00,
2013-03-10 12:00:00,70.0,38.8,29.32,SSE,158,2.9,2.9,32,0.00,,OVC240,0.00,VWS V14.01,2013-03-10 17:00:00,
2013-03-10 12:10:00,70.0,38.0,29.32,SE,135,6.5,6.5,31,0.00,,OVC240,0.00,VWS V14.01,2013-03-10 17:10:00,
2013-03-10 12:20:00,69.6,36.8,29.32,ENE,68,5.4,7.2,30,0.00,,OVC240,0.00,VWS V14.01,2013-03-10 17:20:00,
2013-03-10 12:30:00,69.8,37.0,29.29,ESE,112,5.8,5.8,30,0.00,,OVC240,0.00,VWS V14.01,2013-03-10 17:30:00,
2013-03-10 12:40:00,69.3,37.4,29.29,SW,225,3.6,3.6,31,0.00,,OVC240,0.00,VWS V14.01,2013-03-10 17:40:00,
2013-03-10 12:50:00,69.4,37.5,29.26,SE,135,3.1,3.1,31,0.00,,OVC240,0.00,VWS V14.01,2013-03-10 17:50:00,
2013-03-10 13:00:00,71.8,38.7,29.26,SW,225,2.7,8.1,30,0.00,,OVC240,0.00,VWS V14.01,2013-03-10 18:00:00,
2013-03-10 13:20:00,70.7,36.0,29.26,SSE,158,6.0,8.1,28,0.00,,OVC240,0.00,VWS V14.01,2013-03-10 18:20:00,
2013-03-10 13:30:00,70.3,35.7,29.26,West,270,5.4,5.4,28,0.00,,OVC240,0.00,VWS V14.01,2013-03-10 18:30:00,
2013-03-10 13:40:00,75.4,39.1,29.26,East,90,7.6,8.5,27,0.00,,OVC240,0.00,VWS V14.01,2013-03-10 18:40:00,
2013-03-10 13:50:00,75.4,36.1,29.26,SW,225,2.9,8.1,24,0.00,,OVC240,0.00,VWS V14.01,2013-03-10 18:50:00,
2013-03-10 14:00:00,72.1,33.4,29.26,South,180,7.2,7.8,24,0.00,,OVC240,0.00,VWS V14.01,2013-03-10 19:00:00,
2013-03-10 14:10:00,71.4,33.8,29.26,SE,135,10.7,10.7,25,0.00,,OVC240,0.00,VWS V14.01,2013-03-10 19:10:00,
2013-03-10 14:20:00,72.3,34.6,29.26,ESE,112,8.7,8.7,25,0.00,,OVC240,0.00,VWS V14.01,2013-03-10 19:20:00,
2013-03-10 14:30:00,72.1,33.4,29.26,SE,135,5.8,5.8,24,0.00,,OVC240,0.00,VWS V14.01,2013-03-10 19:30:00,
2013-03-10 14:40:00,70.7,34.2,29.26,SE,135,3.6,4.0,26,0.00,,OVC240,0.00,VWS V14.01,2013-03-10 19:40:00,
2013-03-10 14:50:00,70.2,34.7,29.23,SE,135,2.9,2.9,27,0.00,,OVC240,0.00,VWS V14.01,2013-03-10 19:50:00,
2013-03-10 15:00:00,71.4,34.8,29.23,South,180,5.8,5.8,26,0.00,,OVC240,0.00,VWS V14.01,2013-03-10 20:00:00,
2013-03-10 15:10:00,72.3,33.5,29.23,SW,225,3.1,3.1,24,0.00,,OVC240,0.00,VWS V14.01,2013-03-10 20:10:00,
2013-03-10 15:20:00,70.5,33.0,29.23,SSW,202,5.4,5.4,25,0.00,,OVC240,0.00,VWS V14.01,2013-03-10 20:20:00,
2013-03-10 15:30:00,69.4,34.0,29.23,South,180,3.4,3.6,27,0.00,,OVC240,0.00,VWS V14.01,2013-03-10 20:30:00,
2013-03-10 15:40:00,70.0,32.6,29.23,SSE,158,3.8,3.8,25,0.00,,OVC240,0.00,VWS V14.01,2013-03-10 20:40:00,
2013-03-10 15:50:00,69.8,32.4,29.20,SE,135,7.8,7.8,25,0.00,,OVC240,0.00,VWS V14.01,2013-03-10 20:50:00,
2013-03-10 16:00:00,69.1,32.8,29.20,SSE,158,5.4,5.4,26,0.00,,OVC240,0.00,VWS V14.01,2013-03-10 21:00:00,
2013-03-10 16:10:00,71.8,34.1,29.20,SE,135,4.3,4.3,25,0.00,,OVC240,0.00,VWS V14.01,2013-03-10 21:10:00,
2013-03-10 16:20:00,70.2,32.7,29.20,SE,135,7.4,7.4,25,0.00,,OVC240,0.00,VWS V14.01,2013-03-10 21:20:00,
2013-03-10 16:30:00,69.1,33.7,29.20,West,270,2.5,2.5,27,0.00,,OVC240,0.00,VWS V14.01,2013-03-10 21:30:00,
2013-03-10 16:40:00,68.7,33.4,29.20,SE,135,2.7,8.7,27,0.00,,OVC240,0.00,VWS V14.01,2013-03-10 21:40:00,
2013-03-10 16:50:00,68.2,33.0,29.20,SE,135,2.0,2.0,27,0.00,,OVC240,0.00,VWS V14.01,2013-03-10 21:50:00,
2013-03-10 17:00:00,67.6,33.4,29.20,SE,135,6.0,6.0,28,0.00,,OVC240,0.00,VWS V14.01,2013-03-10 22:00:00,
2013-03-10 17:10:00,67.1,33.8,29.20,SE,135,4.3,6.0,29,0.00,,OVC240,0.00,VWS V14.01,2013-03-10 22:10:00,
2013-03-10 17:20:00,66.4,33.2,29.23,South,180,4.7,6.0,29,0.00,,OVC240,0.00,VWS V14.01,2013-03-10 22:20:00,
2013-03-10 17:30:00,66.0,33.7,29.20,SW,225,1.3,2.0,30,0.00,,OVC240,0.00,VWS V14.01,2013-03-10 22:30:00,
2013-03-10 17:40:00,65.7,33.4,29.20,SW,225,3.6,6.0,30,0.00,,OVC240,0.00,VWS V14.01,2013-03-10 22:40:00,
2013-03-10 17:49:00,68.2,33.0,29.20,SE,135,2.0,2.0,27,0.00,,OVC240,0.00,VWS V14.01,2013-03-10 22:49:00,
2013-03-10 17:50:00,65.1,33.8,29.20,WNW,292,0.0,3.4,31,0.00,,OVC240,0.00,VWS V14.01,2013-03-10 22:50:00,
2013-03-10 17:59:00,67.6,33.4,29.20,SE,135,6.0,6.0,28,0.00,,OVC240,0.00,VWS V14.01,2013-03-10 22:59:00,
2013-03-10 18:00:00,62.6,33.1,29.20,NE,45,3.4,5.4,33,0.00,,OVC240,0.00,VWS V14.01,2013-03-10 23:00:00,
2013-03-10 18:10:00,63.1,34.3,29.20,WSW,248,4.0,4.0,34,0.00,,OVC240,0.00,VWS V14.01,2013-03-10 23:10:00,
2013-03-10 18:20:00,64.4,34.7,29.20,NE,45,3.6,3.6,33,0.00,,OVC240,0.00,VWS V14.01,2013-03-10 23:20:00,
2013-03-10 18:29:00,66.0,33.7,29.20,SW,225,1.3,2.0,30,0.00,,OVC240,0.00,VWS V14.01,2013-03-10 23:29:00,
2013-03-10 18:30:00,63.7,34.8,29.20,WSW,248,2.5,2.5,34,0.00,,OVC240,0.00,VWS V14.01,2013-03-10 23:30:00,
2013-03-10 18:40:00,64.8,35.0,29.20,SSE,158,5.6,5.6,33,0.00,,OVC240,0.00,VWS V14.01,2013-03-10 23:40:00,
2013-03-10 18:50:00,64.6,34.8,29.20,SE,135,4.7,4.7,33,0.00,,OVC240,0.00,VWS V14.01,2013-03-10 23:50:00,
2013-03-10 18:59:00,62.6,33.1,29.20,NE,45,3.4,5.4,33,0.00,,OVC240,0.00,VWS V14.01,2013-03-10 23:59:00,
2013-03-10 19:00:00,63.5,34.7,29.20,South,180,3.1,3.1,34,0.00,,OVC240,0.00,VWS V14.01,2013-03-11 00:00:00,
2013-03-10 19:09:00,63.1,34.3,29.20,WSW,248,4.0,4.0,34,0.00,,OVC240,0.00,VWS V14.01,2013-03-11 00:09:00,
2013-03-10 19:10:00,63.7,34.8,29.20,South,180,1.1,1.1,34,0.00,,OVC240,0.00,VWS V14.01,2013-03-11 00:10:00,
2013-03-10 19:19:00,64.4,34.7,29.20,NE,45,3.6,3.6,33,0.00,,OVC240,0.00,VWS V14.01,2013-03-11 00:19:00,
2013-03-10 19:20:00,63.9,35.0,29.20,South,180,1.1,1.1,34,0.00,,OVC240,0.00,VWS V14.01,2013-03-11 00:20:00,
2013-03-10 19:29:00,63.7,34.8,29.20,WSW,248,2.5,2.5,34,0.00,,OVC240,0.00,VWS V14.01,2013-03-11 00:29:00,
2013-03-10 19:30:00,62.4,34.4,29.20,SSE,158,6.5,6.5,35,0.00,,OVC240,0.00,VWS V14.01,2013-03-11 00:30:00,
2013-03-10 19:39:00,64.8,35.0,29.20,SSE,158,5.6,5.6,33,0.00,,OVC240,0.00,VWS V14.01,2013-03-11 00:39:00,
2013-03-10 19:40:00,63.9,36.4,29.20,SSE,158,3.4,6.5,36,0.00,,OVC240,0.00,VWS V14.01,2013-03-11 00:40:00,
2013-03-10 19:50:00,64.8,36.5,29.23,SE,135,2.5,2.7,35,0.00,,OVC240,0.00,VWS V14.01,2013-03-11 00:50:00,
2013-03-10 20:00:00,63.5,34.7,29.20,South,180,3.1,3.1,34,0.00,,OVC240,0.00,VWS V14.01,2013-03-11 01:00:00,
2013-03-10 20:09:00,63.7,34.8,29.20,South,180,1.1,1.1,34,0.00,,OVC240,0.00,VWS V14.01,2013-03-11 01:09:00,
2013-03-10 20:10:00,64.8,37.2,29.20,South,180,4.0,4.9,36,0.00,,OVC240,0.00,VWS V14.01,2013-03-11 01:10:00,
2013-03-10 20:19:00,63.9,35.0,29.20,South,180,1.1,1.1,34,0.00,,OVC240,0.00,VWS V14.01,2013-03-11 01:19:00,
2013-03-10 20:20:00,64.0,37.3,29.20,SSW,202,7.8,8.7,37,0.00,,OVC240,0.00,VWS V14.01,2013-03-11 01:20:00,
2013-03-10 20:29:00,62.4,34.4,29.20,SSE,158,6.5,6.5,35,0.00,,OVC240,0.00,VWS V14.01,2013-03-11 01:29:00,
2013-03-10 20:30:00,63.3,36.6,29.23,SW,225,0.0,1.6,37,0.00,,OVC240,0.00,VWS V14.01,2013-03-11 01:30:00,
2013-03-10 20:39:00,63.9,36.4,29.20,SSE,158,3.4,6.5,36,0.00,,OVC240,0.00,VWS V14.01,2013-03-11 01:39:00,
2013-03-10 20:40:00,63.1,37.1,29.23,South,180,1.3,2.0,38,0.00,,OVC240,0.00,VWS V14.01,2013-03-11 01:40:00,
2013-03-10 20:50:00,63.0,37.0,29.17,SE,135,3.8,3.8,38,0.00,,OVC240,0.00,VWS V14.01,2013-03-11 01:50:00,
2013-03-10 21:00:00,63.3,37.3,29.17,South,180,2.2,2.2,38,0.00,,OVC240,0.00,VWS V14.01,2013-03-11 02:00:00,
2013-03-10 21:10:00,63.9,38.5,29.17,SE,135,2.7,3.6,39,0.00,,OVC240,0.00,VWS V14.01,2013-03-11 02:10:00,
2013-03-10 21:20:00,63.3,38.0,29.17,South,180,3.1,4.0,39,0.00,,OVC240,0.00,VWS V14.01,2013-03-11 02:20:00,
2013-03-10 21:30:00,63.5,38.8,29.20,SSW,202,4.3,4.3,40,0.00,,OVC240,0.00,VWS V14.01,2013-03-11 02:30:00,
2013-03-10 21:40:00,63.3,38.6,29.20,WSW,248,2.7,3.8,40,0.00,,OVC240,0.00,VWS V14.01,2013-03-11 02:40:00,
2013-03-10 21:50:00,63.1,38.5,29.20,South,180,2.0,2.0,40,0.00,,OVC240,0.00,VWS V14.01,2013-03-11 02:50:00,
2013-03-10 22:00:00,63.7,38.9,29.20,SE,135,3.4,3.4,40,0.00,,OVC240,0.00,VWS V14.01,2013-03-11 03:00:00,
2013-03-10 22:09:00,63.9,38.5,29.17,SE,135,2.7,3.6,39,0.00,,OVC240,0.00,VWS V14.01,2013-03-11 03:09:00,
2013-03-10 22:10:00,64.4,39.6,29.20,SE,135,4.3,4.3,40,0.00,,OVC240,0.00,VWS V14.01,2013-03-11 03:10:00,
2013-03-10 22:19:00,63.3,38.0,29.17,South,180,3.1,4.0,39,0.00,,OVC240,0.00,VWS V14.01,2013-03-11 03:19:00,
2013-03-10 22:20:00,64.2,40.0,29.20,SE,135,3.1,3.6,41,0.00,,OVC240,0.00,VWS V14.01,2013-03-11 03:20:00,
2013-03-10 22:28:00,64.2,40.0,29.20,SE,135,3.4,3.4,41,0.00,,OVC240,0.00,VWS V14.01,2013-03-11 03:28:00,
2013-03-10 22:29:00,63.5,38.8,29.20,SSW,202,4.3,4.3,40,0.00,,OVC240,0.00,VWS V14.01,2013-03-11 03:29:00,
2013-03-10 22:38:00,63.7,39.6,29.20,NW,315,2.5,3.4,41,0.00,,OVC240,0.00,VWS V14.01,2013-03-11 03:38:00,
2013-03-10 22:39:00,63.3,38.6,29.20,WSW,248,2.7,3.8,40,0.00,,OVC240,0.00,VWS V14.01,2013-03-11 03:39:00,
2013-03-10 22:48:00,63.7,40.2,29.20,SSW,202,3.4,3.4,42,0.00,,OVC240,0.00,VWS V14.01,2013-03-11 03:48:00,
2013-03-10 22:49:00,63.1,38.5,29.20,South,180,2.0,2.0,40,0.00,,OVC240,0.00,VWS V14.01,2013-03-11 03:49:00,
2013-03-10 22:58:00,63.9,41.0,29.20,SE,135,2.7,3.4,43,0.00,,OVC240,0.00,VWS V14.01,2013-03-11 03:58:00,
2013-03-10 22:59:00,63.7,38.9,29.20,SE,135,3.4,3.4,40,0.00,,OVC240,0.00,VWS V14.01,2013-03-11 03:59:00,
2013-03-10 23:08:00,63.5,41.2,29.20,ESE,112,1.6,3.4,44,0.00,,OVC240,0.00,VWS V14.01,2013-03-11 04:08:00,
2013-03-10 23:18:00,63.7,41.4,29.17,WSW,248,1.1,3.4,44,0.00,,OVC240,0.00,VWS V14.01,2013-03-11 04:18:00,
2013-03-10 23:28:00,63.9,42.1,29.17,South,180,8.7,8.7,45,0.00,,OVC240,0.00,VWS V14.01,2013-03-11 04:28:00,
2013-03-10 23:38:00,64.2,42.5,29.17,South,180,7.6,8.7,45,0.00,,OVC240,0.00,VWS V14.01,2013-03-11 04:38:00,
2013-03-10 23:48:00,64.0,42.3,29.14,South,180,2.5,8.7,45,0.00,,OVC240,0.00,VWS V14.01,2013-03-11 04:48:00,
2013-03-10 23:58:00,64.0,42.9,29.14,SW,225,3.6,8.7,46,0.00,,OVC240,0.00,VWS V14.01,2013-03-11 04:58:00,